Time;durP1;ratioP1;P1;durP2;ratioP2;P2;SDS_P1;SDS_P2;PMS_P1;PMS_P2;Temp;Humidity;BMP_temperature;BMP_pressure;BME280_temperature;BME280_humidity;BME280_pressure;Samples;Min_cycle;Max_cycle;Signal;HPM_P1;HPM_P2
2022/11/23 00:02:12;;;;;;;0.10;0.10;;;;;;;7.32;100.00;99503.41;4985540;28;20457;-74
2022/11/23 00:04:38;;;;;;;0.10;0.10;;;;;;;7.49;100.00;99511.78;4983983;28;20069;-74
2022/11/23 00:07:03;;;;;;;0.20;0.20;;;;;;;7.44;100.00;99512.19;4992197;28;20030;-75
2022/11/23 00:09:28;;;;;;;0.10;0.10;;;;;;;7.42;100.00;99510.63;4992215;28;20105;-75
2022/11/23 00:11:56;;;;;;;0.20;0.20;;;;;;;7.43;100.00;99514.97;4987578;28;20458;-73
2022/11/23 00:14:21;;;;;;;0.20;0.20;;;;;;;7.39;100.00;99503.72;4973354;28;20065;-75
2022/11/23 00:16:47;;;;;;;0.10;0.10;;;;;;;7.41;100.00;99512.44;4980391;28;20113;-73
2022/11/23 00:19:12;;;;;;;0.10;0.10;;;;;;;7.37;100.00;99519.03;4986163;28;20058;-74
2022/11/23 00:21:37;;;;;;;0.10;0.10;;;;;;;7.46;100.00;99528.94;4984698;28;20409;-73
2022/11/23 00:24:03;;;;;;;0.10;0.10;;;;;;;7.42;100.00;99523.97;4991216;28;20461;-72
2022/11/23 00:26:28;;;;;;;0.15;0.15;;;;;;;7.38;100.00;99522.56;4976031;28;20058;-74
2022/11/23 00:28:54;;;;;;;0.10;0.10;;;;;;;7.48;100.00;99523.44;4986312;28;20464;-75
2022/11/23 00:31:19;;;;;;;0.10;0.10;;;;;;;7.61;100.00;99524.09;4984124;28;20049;-74
2022/11/23 00:33:53;;;;;;;0.10;0.10;;;;;;;7.39;100.00;99503.72;4988697;28;20076;-75
2022/11/23 00:36:19;;;;;;;0.20;0.20;;;;;;;7.60;100.00;99526.88;4979566;28;20520;-73
2022/11/23 00:38:45;;;;;;;0.17;0.17;;;;;;;7.59;100.00;99533.22;4977932;28;22111;-74
2022/11/23 00:41:12;;;;;;;0.13;0.13;;;;;;;7.52;100.00;99526.72;4977739;28;20755;-74
2022/11/23 00:43:38;;;;;;;0.20;0.20;;;;;;;7.39;100.00;99500.22;4978633;28;20026;-74
2022/11/23 00:46:24;;;;;;;0.10;0.10;;;;;;;7.51;100.00;99531.19;4986439;28;20037;-75
2022/11/23 00:48:51;;;;;;;0.10;0.10;;;;;;;7.58;100.00;99537.72;4978575;28;20049;-74
2022/11/23 00:51:20;;;;;;;0.10;0.10;;;;;;;7.55;100.00;99540.66;4963805;28;20058;-75
2022/11/23 00:53:45;;;;;;;0.10;0.10;;;;;;;7.70;100.00;99533.13;4980454;28;20027;-74
2022/11/23 00:56:11;;;;;;;0.20;0.20;;;;;;;7.57;100.00;99540.50;4994587;28;20488;-75
2022/11/23 00:58:37;;;;;;;0.10;0.10;;;;;;;7.57;100.00;99544.03;4981259;28;20540;-74
2022/11/23 01:01:13;;;;;;;0.10;0.10;;;;;;;7.56;100.00;99554.84;4986951;28;20411;-70
2022/11/23 01:03:44;;;;;;;0.10;0.10;;;;;;;7.62;100.00;99551.63;4978251;28;20035;-70
2022/11/23 01:06:12;;;;;;;0.10;0.10;;;;;;;7.48;100.00;99556.34;4980245;28;20035;-70
2022/11/23 01:08:38;;;;;;;0.10;0.10;;;;;;;7.54;100.00;99551.47;4980836;28;20056;-70
2022/11/23 01:11:09;;;;;;;0.10;0.10;;;;;;;7.61;100.00;99553.47;4974250;28;20074;-70
2022/11/23 01:13:36;;;;;;;0.10;0.10;;;;;;;7.64;100.00;99557.69;4985250;28;20514;-70
2022/11/23 01:16:01;;;;;;;0.17;0.17;;;;;;;7.58;100.00;99555.56;4981291;28;20065;-70
2022/11/23 01:18:27;;;;;;;0.10;0.10;;;;;;;7.62;100.00;99556.97;4979430;28;20459;-71
2022/11/23 01:20:53;;;;;;;0.10;0.10;;;;;;;7.54;100.00;99538.13;4981941;28;20069;-70
2022/11/23 01:23:18;;;;;;;0.10;0.10;;;;;;;7.62;100.00;99560.53;4983237;28;20027;-70
2022/11/23 01:25:43;;;;;;;0.10;0.10;;;;;;;7.43;100.00;99561.25;4985797;28;20057;-71
2022/11/23 01:28:09;;;;;;;0.10;0.10;;;;;;;7.44;100.00;99548.72;4981419;28;20026;-70
2022/11/23 01:30:35;;;;;;;0.17;0.17;;;;;;;7.72;100.00;99562.38;4980752;28;20465;-75
2022/11/23 01:33:01;;;;;;;0.20;0.20;;;;;;;7.67;100.00;99564.63;4981742;28;20060;-74
2022/11/23 01:35:27;;;;;;;0.20;0.20;;;;;;;7.74;100.00;99561.28;4983270;28;20464;-74
2022/11/23 01:37:52;;;;;;;0.10;0.10;;;;;;;7.64;100.00;99576.41;4982083;28;20026;-76
2022/11/23 01:40:17;;;;;;;0.10;0.10;;;;;;;7.68;100.00;99574.34;4984838;28;20414;-75
2022/11/23 01:42:57;;;;;;;0.10;0.10;;;;;;;7.68;100.00;99569.81;4986631;28;20538;-74
2022/11/23 01:45:38;;;;;;;0.10;0.10;;;;;;;7.67;100.00;99567.28;4987020;28;20713;-73
2022/11/23 01:48:08;;;;;;;0.10;0.10;;;;;;;7.65;100.00;99580.78;4982148;28;20042;-76
2022/11/23 01:50:34;;;;;;;0.10;0.10;;;;;;;7.86;100.00;99571.88;4983212;28;20116;-72
2022/11/23 01:52:59;;;;;;;0.10;0.10;;;;;;;7.71;100.00;99568.69;4977862;28;20476;-74
2022/11/23 01:55:25;;;;;;;0.10;0.10;;;;;;;7.84;100.00;99582.72;4985328;28;20052;-70
2022/11/23 01:57:51;;;;;;;0.10;0.10;;;;;;;7.87;100.00;99577.09;4975478;28;20061;-77
2022/11/23 02:00:16;;;;;;;0.20;0.20;;;;;;;7.62;100.00;99562.31;4982870;28;20109;-75
2022/11/23 02:02:49;;;;;;;0.10;0.10;;;;;;;7.73;100.00;99585.44;4986244;28;20027;-74
2022/11/23 02:05:16;;;;;;;0.10;0.10;;;;;;;7.73;100.00;99586.31;4968897;28;20149;-77
2022/11/23 02:07:41;;;;;;;0.10;0.10;;;;;;;7.66;100.00;99587.81;4977413;28;20035;-75
2022/11/23 02:10:07;;;;;;;0.20;0.20;;;;;;;7.69;100.00;99590.22;4972590;28;20037;-74
2022/11/23 02:12:32;;;;;;;0.10;0.10;;;;;;;7.58;100.00;99584.94;4986226;28;20057;-73
2022/11/23 02:14:57;;;;;;;0.10;0.10;;;;;;;7.72;100.00;99586.41;4974041;28;20381;-74
2022/11/23 02:17:23;;;;;;;0.10;0.10;;;;;;;7.68;100.00;99583.19;4981429;28;20068;-74
2022/11/23 02:20:03;;;;;;;0.10;0.10;;;;;;;7.64;100.00;99581.75;4982557;28;20465;-74
2022/11/23 02:22:37;;;;;;;0.17;0.17;;;;;;;7.75;100.00;99599.53;4980814;28;20522;-76
2022/11/23 02:25:08;;;;;;;0.10;0.10;;;;;;;7.84;100.00;99587.19;4975538;28;20034;-77
2022/11/23 02:27:33;;;;;;;0.10;0.10;;;;;;;7.67;100.00;99592.16;4980909;28;20038;-75
2022/11/23 02:30:00;;;;;;;0.10;0.10;;;;;;;7.74;100.00;99598.69;4976789;28;20495;-74
2022/11/23 02:32:25;;;;;;;0.13;0.13;;;;;;;7.77;100.00;99600.25;4976087;28;20038;-75
2022/11/23 02:34:50;;;;;;;0.10;0.10;;;;;;;7.87;100.00;99593.13;4980280;28;20129;-77
2022/11/23 02:37:17;;;;;;;0.20;0.20;;;;;;;7.72;100.00;99567.72;4985465;28;20380;-76
2022/11/23 02:39:48;;;;;;;0.10;0.10;;;;;;;7.61;100.00;99588.22;4976595;28;20122;-75
2022/11/23 02:42:13;;;;;;;0.10;0.10;;;;;;;7.60;100.00;99591.84;4979100;28;20075;-74
2022/11/23 02:44:55;;;;;;;0.10;0.10;;;;;;;7.61;100.00;99600.69;4982498;28;20125;-74
2022/11/23 02:47:20;;;;;;;0.10;0.10;;;;;;;7.92;100.00;99606.09;4976273;28;20472;-75
2022/11/23 02:49:46;;;;;;;0.10;0.10;;;;;;;7.52;100.00;99580.97;4977301;28;20134;-74
2022/11/23 02:52:12;;;;;;;0.20;0.20;;;;;;;7.65;100.00;99604.81;4975122;28;20086;-75
2022/11/23 02:54:37;;;;;;;0.15;0.15;;;;;;;7.77;100.00;99595.75;4980379;28;20026;-75
2022/11/23 02:57:03;;;;;;;0.10;0.10;;;;;;;7.76;100.00;99594.06;4979727;28;20512;-75
2022/11/23 02:59:31;;;;;;;0.20;0.20;;;;;;;7.70;100.00;99607.06;4980022;28;20169;-75
2022/11/23 03:01:57;;;;;;;0.20;0.20;;;;;;;7.67;100.00;99596.69;4981914;28;20037;-74
2022/11/23 03:04:22;;;;;;;0.10;0.10;;;;;;;7.71;100.00;99587.41;4989207;28;20026;-73
2022/11/23 03:06:47;;;;;;;0.13;0.13;;;;;;;7.47;100.00;99575.16;4980858;28;20035;-74
2022/11/23 03:09:12;;;;;;;0.10;0.10;;;;;;;7.70;100.00;99594.59;4956776;28;20038;-74
2022/11/23 03:11:38;;;;;;;0.10;0.10;;;;;;;7.90;100.00;99608.91;4979474;28;20053;-75
2022/11/23 03:14:03;;;;;;;0.10;0.10;;;;;;;7.78;100.00;99592.09;4979720;28;20485;-73
2022/11/23 03:16:28;;;;;;;0.10;0.10;;;;;;;7.80;100.00;99608.00;4985899;28;20457;-77
2022/11/23 03:18:54;;;;;;;0.15;0.15;;;;;;;7.87;100.00;99586.94;4981383;28;20034;-73
2022/11/23 03:21:19;;;;;;;0.13;0.13;;;;;;;7.80;100.00;99603.50;4985603;28;20109;-73
2022/11/23 03:23:44;;;;;;;0.10;0.10;;;;;;;7.87;100.00;99582.44;4973031;28;20039;-74
2022/11/23 03:26:10;;;;;;;0.10;0.10;;;;;;;7.92;100.00;99588.25;4966793;28;20045;-74
2022/11/23 03:28:35;;;;;;;0.10;0.10;;;;;;;7.89;100.00;99604.53;4970018;28;20035;-74
2022/11/23 03:31:00;;;;;;;0.10;0.10;;;;;;;7.91;100.00;99604.41;4978272;28;20034;-74
2022/11/23 03:33:26;;;;;;;0.10;0.10;;;;;;;7.78;100.00;99605.47;4975263;28;20077;-74
2022/11/23 03:35:51;;;;;;;0.17;0.17;;;;;;;7.68;100.00;99611.72;4973477;28;20576;-75
2022/11/23 03:38:16;;;;;;;0.10;0.10;;;;;;;7.80;100.00;99611.53;4967485;28;20038;-73
2022/11/23 03:40:45;;;;;;;0.10;0.10;;;;;;;7.85;100.00;99612.94;4971935;28;20037;-74
2022/11/23 03:43:11;;;;;;;0.10;0.10;;;;;;;7.90;100.00;99622.28;4988536;28;20045;-76
2022/11/23 03:45:36;;;;;;;0.10;0.10;;;;;;;7.90;100.00;99611.59;4977562;28;20030;-73
2022/11/23 03:48:01;;;;;;;0.10;0.10;;;;;;;7.89;100.00;99617.03;4983300;28;20110;-76
2022/11/23 03:50:28;;;;;;;0.10;0.10;;;;;;;7.78;100.00;99624.16;4974593;28;20050;-75
2022/11/23 03:52:54;;;;;;;0.10;0.10;;;;;;;7.80;100.00;99600.84;4978344;28;20034;-75
2022/11/23 03:55:19;;;;;;;0.10;0.10;;;;;;;7.80;100.00;99626.69;4986906;28;20026;-73
2022/11/23 03:57:46;;;;;;;0.10;0.10;;;;;;;7.68;100.00;99599.22;4981249;28;20035;-73
2022/11/23 04:00:12;;;;;;;0.10;0.10;;;;;;;7.88;100.00;99628.72;4976253;28;20034;-73
2022/11/23 04:02:37;;;;;;;0.20;0.20;;;;;;;7.79;100.00;99607.16;4977963;28;20173;-77
2022/11/23 04:05:03;;;;;;;0.15;0.15;;;;;;;7.85;100.00;99621.81;4976539;28;20039;-75
2022/11/23 04:07:28;;;;;;;0.10;0.10;;;;;;;7.79;100.00;99623.19;4978966;28;20042;-74
2022/11/23 04:09:54;;;;;;;0.10;0.10;;;;;;;7.73;100.00;99629.06;4981435;28;20026;-75
2022/11/23 04:12:19;;;;;;;0.10;0.10;;;;;;;7.70;100.00;99631.13;4987493;28;20037;-75
2022/11/23 04:14:44;;;;;;;0.10;0.10;;;;;;;7.99;100.00;99625.97;4980613;28;20037;-73
2022/11/23 04:17:09;;;;;;;0.17;0.17;;;;;;;7.76;100.00;99625.25;4975359;28;20090;-74
2022/11/23 04:19:35;;;;;;;0.17;0.17;;;;;;;7.75;100.00;99627.09;4979562;28;20468;-72
2022/11/23 04:22:00;;;;;;;0.10;0.10;;;;;;;7.84;100.00;99621.94;4979103;28;20041;-75
2022/11/23 04:24:25;;;;;;;0.10;0.10;;;;;;;7.55;100.00;99614.59;4979358;28;20026;-75
2022/11/23 04:26:51;;;;;;;0.10;0.10;;;;;;;7.64;100.00;99628.03;4985030;28;20049;-73
2022/11/23 04:29:16;;;;;;;0.10;0.10;;;;;;;7.79;100.00;99625.88;4987284;28;20476;-75
2022/11/23 04:31:41;;;;;;;0.20;0.20;;;;;;;7.73;100.00;99622.84;4978735;28;20060;-74
2022/11/23 04:34:07;;;;;;;0.10;0.10;;;;;;;7.71;100.00;99624.81;4979943;28;20034;-75
2022/11/23 04:36:32;;;;;;;0.10;0.10;;;;;;;7.74;100.00;99635.22;4978934;28;20053;-74
2022/11/23 04:38:57;;;;;;;0.10;0.10;;;;;;;7.60;100.00;99612.38;4988227;28;20092;-75
2022/11/23 04:41:23;;;;;;;0.10;0.10;;;;;;;7.76;100.00;99633.28;4977979;28;20033;-73
2022/11/23 04:43:48;;;;;;;0.10;0.10;;;;;;;7.56;100.00;99625.16;4986727;28;20096;-73
2022/11/23 04:46:14;;;;;;;0.20;0.20;;;;;;;7.58;100.00;99601.81;4993436;28;20121;-77
2022/11/23 04:48:39;;;;;;;0.10;0.10;;;;;;;7.73;100.00;99633.53;4981988;28;20027;-75
2022/11/23 04:51:05;;;;;;;0.10;0.10;;;;;;;7.71;100.00;99639.03;4987098;28;20041;-74
2022/11/23 04:53:30;;;;;;;0.10;0.10;;;;;;;7.94;100.00;99638.88;4974671;28;20485;-72
2022/11/23 04:55:55;;;;;;;0.10;0.10;;;;;;;7.86;100.00;99631.53;4978924;28;20077;-76
2022/11/23 04:58:21;;;;;;;0.10;0.10;;;;;;;7.79;100.00;99633.03;4985116;28;20030;-75
2022/11/23 05:00:46;;;;;;;0.10;0.10;;;;;;;7.78;100.00;99616.16;4986908;28;20034;-75
2022/11/23 05:03:11;;;;;;;0.10;0.10;;;;;;;7.80;100.00;99621.34;4982405;28;20049;-76
2022/11/23 05:05:38;;;;;;;0.10;0.10;;;;;;;7.79;100.00;99612.50;4983125;28;20037;-74
2022/11/23 05:08:04;;;;;;;0.13;0.13;;;;;;;7.45;100.00;99607.38;4991123;28;20468;-76
2022/11/23 05:10:29;;;;;;;0.20;0.20;;;;;;;7.55;100.00;99625.28;4981871;28;20042;-75
2022/11/23 05:12:55;;;;;;;0.10;0.10;;;;;;;7.50;100.00;99590.94;4981109;28;20548;-76
2022/11/23 05:15:20;;;;;;;0.10;0.10;;;;;;;7.65;100.00;99595.00;4994921;28;20459;-76
2022/11/23 05:17:45;;;;;;;0.10;0.10;;;;;;;7.92;100.00;99609.63;4977564;28;20416;-77
2022/11/23 05:20:11;;;;;;;0.10;0.10;;;;;;;7.57;100.00;99602.81;4976962;28;20081;-76
2022/11/23 05:22:36;;;;;;;0.10;0.10;;;;;;;7.93;100.00;99629.16;4994711;28;20061;-74
2022/11/23 05:25:01;;;;;;;0.10;0.10;;;;;;;7.85;100.00;99613.78;4980394;28;20409;-75
2022/11/23 05:27:27;;;;;;;0.10;0.10;;;;;;;7.81;100.00;99607.84;4981517;28;20125;-77
2022/11/23 05:29:52;;;;;;;0.10;0.10;;;;;;;7.56;100.00;99627.81;4991934;28;20034;-74
2022/11/23 05:32:17;;;;;;;0.10;0.10;;;;;;;7.73;100.00;99629.06;4990921;28;20556;-74
2022/11/23 05:34:43;;;;;;;0.10;0.10;;;;;;;7.59;100.00;99616.88;4994683;28;20026;-75
2022/11/23 05:37:08;;;;;;;0.10;0.10;;;;;;;7.54;100.00;99637.78;4975396;28;20410;-74
2022/11/23 05:39:33;;;;;;;0.10;0.10;;;;;;;7.70;100.00;99612.41;4997542;28;20446;-75
2022/11/23 05:41:59;;;;;;;0.10;0.10;;;;;;;7.84;100.00;99616.59;4983309;28;20038;-77
2022/11/23 05:44:24;;;;;;;0.10;0.10;;;;;;;7.59;100.00;99616.88;4981598;28;20072;-74
2022/11/23 05:46:50;;;;;;;0.20;0.20;;;;;;;7.74;100.00;99636.09;4978454;28;20084;-75
2022/11/23 05:49:15;;;;;;;0.20;0.20;;;;;;;7.71;100.00;99633.69;4975385;28;20031;-76
2022/11/23 05:51:40;;;;;;;0.10;0.10;;;;;;;7.73;100.00;99636.22;4999739;28;20041;-74
2022/11/23 05:54:06;;;;;;;0.10;0.10;;;;;;;7.35;100.00;99615.31;4989010;28;20034;-73
2022/11/23 05:56:31;;;;;;;0.10;0.10;;;;;;;7.47;100.00;99616.09;4987836;28;20778;-72
2022/11/23 05:58:56;;;;;;;0.10;0.10;;;;;;;7.90;100.00;99634.78;4998815;28;20030;-74
2022/11/23 06:01:22;;;;;;;0.20;0.20;;;;;;;7.64;100.00;99621.81;4981960;28;20037;-74
2022/11/23 06:03:49;;;;;;;0.10;0.10;;;;;;;7.47;100.00;99607.22;4982063;28;20058;-75
2022/11/23 06:06:14;;;;;;;0.10;0.10;;;;;;;7.67;100.00;99618.06;4965580;28;20408;-77
2022/11/23 06:08:39;;;;;;;0.20;0.20;;;;;;;7.26;100.00;99629.41;4989089;28;20506;-74
2022/11/23 06:11:05;;;;;;;0.10;0.10;;;;;;;7.87;100.00;99638.56;4986331;28;20038;-77
2022/11/23 06:13:30;;;;;;;0.20;0.20;;;;;;;7.35;100.00;99642.00;4981984;28;20054;-75
2022/11/23 06:15:56;;;;;;;0.10;0.10;;;;;;;7.43;100.00;99620.00;4977723;28;20117;-75
2022/11/23 06:18:21;;;;;;;0.10;0.10;;;;;;;7.23;100.00;99627.00;4979016;28;20022;-75
2022/11/23 06:20:46;;;;;;;0.10;0.10;;;;;;;7.33;100.00;99619.94;4979542;28;20481;-74
2022/11/23 06:23:11;;;;;;;0.10;0.10;;;;;;;7.49;100.00;99614.16;4981839;28;20125;-77
2022/11/23 06:25:38;;;;;;;0.10;0.10;;;;;;;7.44;100.00;99635.03;4979826;28;20026;-75
2022/11/23 06:28:04;;;;;;;0.13;0.13;;;;;;;7.54;100.00;99634.28;4987520;28;20058;-75
2022/11/23 06:30:30;;;;;;;0.13;0.13;;;;;;;7.81;100.00;99639.09;4980392;28;20034;-74
2022/11/23 06:32:56;;;;;;;0.20;0.20;;;;;;;7.47;100.00;99648.13;4983198;28;20030;-75
2022/11/23 06:35:22;;;;;;;0.13;0.13;;;;;;;7.35;100.00;99655.34;4982456;28;20445;-75
2022/11/23 06:37:48;;;;;;;0.20;0.20;;;;;;;7.38;100.00;99651.56;4974421;28;20027;-74
2022/11/23 06:40:14;;;;;;;0.10;0.10;;;;;;;7.23;100.00;99655.53;5001282;28;20034;-77
2022/11/23 06:42:39;;;;;;;0.10;0.10;;;;;;;7.40;100.00;99656.81;4977286;28;20037;-74
2022/11/23 06:45:05;;;;;;;0.20;0.20;;;;;;;7.27;100.00;99640.97;4977974;28;20181;-75
2022/11/23 06:47:31;;;;;;;0.10;0.10;;;;;;;7.33;100.00;99645.75;4975920;28;20425;-76
2022/11/23 06:49:56;;;;;;;0.10;0.10;;;;;;;7.15;100.00;99642.81;4976541;28;20548;-74
2022/11/23 06:52:21;;;;;;;0.10;0.10;;;;;;;7.33;100.00;99653.78;4970706;28;20041;-75
2022/11/23 06:54:46;;;;;;;0.10;0.10;;;;;;;7.26;100.00;99655.28;4970299;28;20174;-75
2022/11/23 06:57:12;;;;;;;0.10;0.10;;;;;;;6.96;100.00;99655.00;4987050;28;20129;-74
2022/11/23 06:59:37;;;;;;;0.20;0.20;;;;;;;7.34;100.00;99674.16;4976511;28;20041;-73
2022/11/23 07:02:02;;;;;;;0.20;0.20;;;;;;;6.92;100.00;99642.03;4973475;28;20038;-75
2022/11/23 07:04:28;;;;;;;0.15;0.15;;;;;;;7.28;100.00;99656.00;4974412;28;20507;-77
2022/11/23 07:06:53;;;;;;;0.20;0.20;;;;;;;6.93;100.00;99681.91;4970050;28;20153;-73
2022/11/23 07:09:18;;;;;;;0.13;0.13;;;;;;;6.99;100.00;99673.44;4970308;28;20030;-74
2022/11/23 07:11:44;;;;;;;0.20;0.20;;;;;;;6.77;100.00;99679.66;4971481;28;20034;-73
2022/11/23 07:14:09;;;;;;;0.10;0.10;;;;;;;6.90;100.00;99685.69;4974491;28;20532;-71
2022/11/23 07:16:34;;;;;;;0.20;0.20;;;;;;;6.90;100.00;99695.50;4973395;28;20041;-72
2022/11/23 07:19:00;;;;;;;0.10;0.10;;;;;;;6.69;100.00;99685.59;4973846;28;20085;-71
2022/11/23 07:21:25;;;;;;;0.20;0.20;;;;;;;6.85;100.00;99684.38;4970071;28;20117;-71
2022/11/23 07:23:50;;;;;;;0.10;0.10;;;;;;;6.96;100.00;99687.00;4974372;28;20026;-71
2022/11/23 07:26:15;;;;;;;0.20;0.20;;;;;;;6.80;100.00;99697.25;4969078;28;20030;-71
2022/11/23 07:28:41;;;;;;;0.10;0.10;;;;;;;6.71;100.00;99670.31;4977646;28;20038;-72
2022/11/23 07:31:06;;;;;;;0.10;0.10;;;;;;;6.98;100.00;99714.44;4978579;28;20491;-73
2022/11/23 07:33:32;;;;;;;0.20;0.20;;;;;;;7.05;100.00;99707.63;4975454;28;20027;-70
2022/11/23 07:36:00;;;;;;;0.13;0.13;;;;;;;6.96;100.00;99707.53;4978289;28;20030;-74
2022/11/23 07:38:25;;;;;;;0.20;0.20;;;;;;;7.10;100.00;99717.09;4976145;28;20035;-73
2022/11/23 07:40:50;;;;;;;0.20;0.20;;;;;;;7.01;100.00;99708.00;4980127;28;20033;-74
2022/11/23 07:43:16;;;;;;;0.20;0.20;;;;;;;7.04;100.00;99713.94;4975993;28;20061;-73
2022/11/23 07:45:41;;;;;;;0.20;0.20;;;;;;;6.99;100.00;99723.28;4973503;28;20031;-74
2022/11/23 07:48:08;;;;;;;0.17;0.17;;;;;;;6.94;100.00;99723.66;4970862;28;20060;-74
2022/11/23 07:50:34;;;;;;;0.20;0.20;;;;;;;6.87;100.00;99703.78;4968828;28;20034;-72
2022/11/23 07:53:01;;;;;;;0.13;0.13;;;;;;;7.28;100.00;99722.75;4990488;28;20041;-76
2022/11/23 07:55:27;;;;;;;0.10;0.10;;;;;;;7.34;100.00;99731.09;4976904;28;20054;-74
2022/11/23 07:57:53;;;;;;;0.20;0.20;;;;;;;7.15;100.00;99729.06;4975460;28;20443;-72
2022/11/23 08:00:19;;;;;;;0.20;0.20;;;;;;;7.38;100.00;99717.50;4978190;28;20030;-75
2022/11/23 08:02:45;;;;;;;0.20;0.20;;;;;;;7.05;100.00;99691.63;4979062;28;20030;-76
2022/11/23 08:05:10;;;;;;;0.10;0.10;;;;;;;7.40;100.00;99720.91;4976636;28;20033;-74
2022/11/23 08:07:35;;;;;;;0.10;0.10;;;;;;;7.33;100.00;99734.75;4977122;28;20173;-72
2022/11/23 08:10:01;;;;;;;0.20;0.20;;;;;;;7.27;100.00;99743.25;4976402;28;21159;-72
2022/11/23 08:12:26;;;;;;;0.10;0.10;;;;;;;7.44;100.00;99730.31;4975682;28;20031;-73
2022/11/23 08:14:51;;;;;;;0.20;0.20;;;;;;;7.40;100.00;99742.25;4977108;28;20133;-73
2022/11/23 08:17:17;;;;;;;0.20;0.20;;;;;;;7.38;100.00;99698.81;4972681;28;20419;-71
2022/11/23 08:19:42;;;;;;;0.20;0.20;;;;;;;7.47;100.00;99738.94;4976536;28;20031;-73
2022/11/23 08:22:07;;;;;;;0.20;0.20;;;;;;;7.34;100.00;99751.59;4991538;28;20058;-73
2022/11/23 08:24:33;;;;;;;0.13;0.13;;;;;;;7.67;100.00;99748.97;4982427;28;20121;-75
2022/11/23 08:26:58;;;;;;;0.10;0.10;;;;;;;7.76;100.00;99735.69;4978427;28;20026;-73
2022/11/23 08:29:23;;;;;;;0.20;0.20;;;;;;;7.80;100.00;99746.94;4981130;28;20041;-71
2022/11/23 08:31:50;;;;;;;0.10;0.10;;;;;;;7.43;100.00;99718.81;4981715;28;20419;-72
2022/11/23 08:34:17;;;;;;;0.20;0.20;;;;;;;7.80;100.00;99739.78;4968223;28;20034;-72
2022/11/23 08:36:42;;;;;;;0.20;0.20;;;;;;;7.71;100.00;99761.06;4972538;28;20027;-70
2022/11/23 08:39:09;;;;;;;0.10;0.10;;;;;;;7.90;100.00;99745.22;4977616;28;20098;-74
2022/11/23 08:41:35;;;;;;;0.10;0.10;;;;;;;8.02;100.00;99747.81;4979533;28;20394;-73
2022/11/23 08:44:01;;;;;;;0.20;0.20;;;;;;;8.14;100.00;99738.75;4981096;28;20045;-73
2022/11/23 08:46:26;;;;;;;0.20;0.20;;;;;;;8.00;100.00;99757.78;4979398;28;20547;-73
2022/11/23 08:48:51;;;;;;;0.10;0.10;;;;;;;8.09;100.00;99744.47;4974897;28;20120;-73
2022/11/23 08:51:21;;;;;;;0.13;0.13;;;;;;;8.13;100.00;99739.75;4979781;28;21561;-77
2022/11/23 08:53:46;;;;;;;0.20;0.20;;;;;;;8.11;100.00;99745.19;4977291;28;20096;-74
2022/11/23 08:56:12;;;;;;;0.10;0.10;;;;;;;8.17;100.00;99754.53;4981983;28;20472;-74
2022/11/23 08:58:37;;;;;;;0.17;0.17;;;;;;;8.41;100.00;99732.03;4979062;28;20035;-76
2022/11/23 09:01:07;;;;;;;0.10;0.10;;;;;;;8.23;100.00;99747.81;4981300;28;20030;-74
2022/11/23 09:03:33;;;;;;;0.20;0.20;;;;;;;8.05;100.00;99758.25;4980482;28;20137;-72
2022/11/23 09:05:59;;;;;;;0.20;0.20;;;;;;;8.19;100.00;99741.91;4980651;28;20065;-73
2022/11/23 09:08:24;;;;;;;0.10;0.10;;;;;;;8.45;100.00;99754.00;4983450;28;20056;-72
2022/11/23 09:10:50;;;;;;;0.15;0.15;;;;;;;8.47;100.00;99754.69;4982000;28;20468;-73
2022/11/23 09:13:15;;;;;;;0.20;0.20;;;;;;;8.48;100.00;99748.38;4984470;28;20038;-73
2022/11/23 09:15:40;;;;;;;0.10;0.10;;;;;;;8.55;100.00;99747.75;4977620;28;20055;-75
2022/11/23 09:18:05;;;;;;;0.10;0.10;;;;;;;8.57;100.00;99734.25;4981247;28;20030;-72
2022/11/23 09:20:31;;;;;;;0.10;0.10;;;;;;;9.05;100.00;99743.41;4980034;28;21121;-74
2022/11/23 09:22:56;;;;;;;0.13;0.13;;;;;;;8.91;100.00;99752.66;4978330;28;20058;-74
2022/11/23 09:25:22;;;;;;;0.17;0.17;;;;;;;8.98;100.00;99731.56;4977139;28;20041;-75
2022/11/23 09:27:48;;;;;;;0.20;0.20;;;;;;;9.47;98.01;99715.56;4978077;28;20043;-75
2022/11/23 09:30:14;;;;;;;0.20;0.20;;;;;;;9.56;97.18;99719.25;4976947;28;20058;-77
2022/11/23 09:32:39;;;;;;;0.20;0.20;;;;;;;9.43;97.60;99731.09;4980317;28;20125;-77
2022/11/23 09:35:05;;;;;;;0.13;0.13;;;;;;;9.56;100.00;99733.50;4976818;28;20026;-73
2022/11/23 09:37:30;;;;;;;0.20;0.20;;;;;;;9.75;96.85;99735.34;4977911;28;20062;-76
2022/11/23 09:39:56;;;;;;;0.20;0.20;;;;;;;9.48;97.64;99722.63;4972654;28;20544;-76
2022/11/23 09:42:27;;;;;;;0.10;0.10;;;;;;;9.75;95.08;99737.16;4980796;28;20030;-74
2022/11/23 09:45:13;;;;;;;0.20;0.20;;;;;;;10.03;94.38;99692.56;4976964;28;20368;-74
2022/11/23 09:47:56;;;;;;;0.20;0.20;;;;;;;9.94;96.91;99722.03;4977660;28;20064;-73
2022/11/23 09:50:52;;;;;;;0.10;0.10;;;;;;;10.02;93.38;99733.78;4976054;28;20109;-75
2022/11/23 09:53:31;;;;;;;0.20;0.20;;;;;;;10.16;93.91;99732.47;4975898;28;20096;-77
2022/11/23 09:55:57;;;;;;;0.20;0.20;;;;;;;10.28;91.06;99718.88;4976979;28;20034;-74
2022/11/23 09:58:27;;;;;;;0.17;0.17;;;;;;;10.45;90.50;99711.97;4984879;28;20030;-75
2022/11/23 10:01:06;;;;;;;0.10;0.10;;;;;;;9.92;92.24;99734.78;4974768;28;20547;-74
2022/11/23 10:03:34;;;;;;;0.20;0.20;;;;;;;9.99;92.24;99698.34;4979172;28;20030;-78
2022/11/23 10:06:25;;;;;;;0.20;0.20;;;;;;;10.65;92.22;99712.72;4973262;28;20070;-74
2022/11/23 10:09:28;;;;;;;0.20;0.20;;;;;;;10.38;91.56;99708.97;4977636;28;20030;-73
2022/11/23 10:12:08;;;;;;;0.20;0.20;;;;;;;9.90;91.24;99705.41;4978497;28;20048;-75
2022/11/23 10:14:52;;;;;;;0.10;0.10;;;;;;;10.44;91.32;99686.97;4979786;28;20034;-77
2022/11/23 10:17:42;;;;;;;0.20;0.20;;;;;;;10.73;91.50;99683.28;4969229;28;20030;-77
2022/11/23 10:20:36;;;;;;;0.10;0.10;;;;;;;10.83;89.08;99690.47;4993462;28;20034;-76
2022/11/23 10:23:06;;;;;;;0.20;0.20;;;;;;;11.00;85.43;99659.28;4994535;28;20070;-78
2022/11/23 10:25:35;;;;;;;0.30;0.30;;;;;;;10.85;86.40;99675.03;4972691;28;20269;-74
2022/11/23 10:28:09;;;;;;;0.20;0.20;;;;;;;11.12;86.83;99676.00;4984944;28;20158;-70
2022/11/23 10:30:35;;;;;;;0.20;0.20;;;;;;;11.27;84.81;99676.34;4971822;28;20038;-72
2022/11/23 10:33:16;;;;;;;0.20;0.20;;;;;;;11.34;84.96;99675.56;4976781;28;20040;-73
2022/11/23 10:35:41;;;;;;;0.20;0.20;;;;;;;11.39;84.54;99669.72;4973582;28;20037;-73
2022/11/23 10:38:20;;;;;;;0.20;0.20;;;;;;;11.75;83.52;99658.94;4977848;28;20034;-74
2022/11/23 10:40:57;;;;;;;0.20;0.20;;;;;;;11.79;81.28;99652.25;4978537;28;20112;-73
2022/11/23 10:43:25;;;;;;;0.20;0.20;;;;;;;11.79;80.59;99654.94;4974511;28;20217;-76
2022/11/23 10:46:32;;;;;;;0.20;0.20;;;;;;;11.47;82.44;99659.06;4991541;28;20038;-73
2022/11/23 10:49:17;;;;;;;0.20;0.20;;;;;;;11.41;81.77;99616.66;4980884;28;20049;-77
2022/11/23 10:51:48;;;;;;;0.17;0.17;;;;;;;11.49;82.72;99659.75;4978953;28;20030;-74
2022/11/23 10:54:21;;;;;;;0.17;0.17;;;;;;;11.75;80.65;99640.13;4977466;28;20559;-75
2022/11/23 10:56:50;;;;;;;0.20;0.20;;;;;;;12.11;79.97;99644.59;4979405;28;20153;-77
2022/11/23 10:59:28;;;;;;;0.20;0.20;;;;;;;12.36;79.85;99647.41;4978592;28;20035;-78
2022/11/23 11:02:14;;;;;;;0.25;0.25;;;;;;;11.80;78.23;99618.13;4962774;28;20026;-78
2022/11/23 11:04:40;;;;;;;0.20;0.20;;;;;;;11.21;80.48;99626.75;4975275;28;20034;-76
2022/11/23 11:07:18;;;;;;;0.20;0.20;;;;;;;12.18;79.50;99640.28;4976894;28;20392;-76
2022/11/23 11:09:51;;;;;;;0.20;0.20;;;;;;;12.29;77.80;99629.25;4971777;28;20026;-74
2022/11/23 11:12:17;;;;;;;0.20;0.20;;;;;;;12.67;75.21;99628.03;4977824;28;20033;-74
2022/11/23 11:15:13;;;;;;;0.10;0.10;;;;;;;12.24;76.07;99634.25;4976789;28;20032;-74
2022/11/23 11:17:40;;;;;;;0.20;0.20;;;;;;;12.33;77.54;99645.03;4979169;28;20036;-75
2022/11/23 11:20:32;;;;;;;0.20;0.20;;;;;;;12.81;73.61;99645.44;4976240;28;20141;-73
2022/11/23 11:23:03;;;;;;;0.20;0.20;;;;;;;12.73;75.00;99638.16;4979881;28;20817;-75
2022/11/23 11:25:31;;;;;;;0.10;0.10;;;;;;;12.83;73.35;99649.66;4982364;28;20022;-75
2022/11/23 11:27:57;;;;;;;0.20;0.20;;;;;;;12.88;73.48;99641.06;4983042;28;20030;-75
2022/11/23 11:30:24;;;;;;;0.20;0.20;;;;;;;12.98;72.51;99638.22;4986816;28;20030;-77
2022/11/23 11:33:20;;;;;;;0.20;0.20;;;;;;;12.67;75.03;99633.44;4969765;28;20061;-73
2022/11/23 11:35:48;;;;;;;0.10;0.10;;;;;;;12.29;75.17;99636.47;4982369;28;20113;-75
2022/11/23 11:38:21;;;;;;;0.20;0.20;;;;;;;12.89;71.78;99613.97;4984554;28;20096;-74